Nearby METAR Reports

 

KSEE - San Diego/Santee, California, USA
Distance from station: E 4mi, 6km
Updated: 08/14/2018 3:47pm
Clear
Clear
 Wind from W
Wind: W 14 mph , 22 km/h, Gust: 21 mph , 33 km/h
Temperature: 82°F , 28°C
Heat Index: 84°F , 29°C
Dew Point: 64°F , 18°C
Humidity: 55%
Barometer: 29.85 inHg , 1010.8 hPa
Clouds: Clear
Visibility: 10 miles , 16 km
2018/08/14 22:47 KSEE 142247Z 28012G18KT 10SM SKC 28/18 A2985
KMYF - San Diego/Mntgmy, California, USA
Distance from station: W 6mi, 10km
Updated: 08/14/2018 3:53pm
Partly cloudy
Partly cloudy
 Wind from WNW
Wind: WNW 9 mph , 15 km/h
Temperature: 79°F , 26°C
Dew Point: 63°F , 17°C
Humidity: 58%
Barometer: 29.87 inHg , 1011.5 hPa
Clouds: Partly cloudy
Visibility: 10 miles , 16 km
Cloud details: Partly cloudy 2000 ft
2018/08/14 22:53 KMYF 142253Z 29008KT 10SM SCT020 26/17 A2987 RMK AO2 SLP109 T02610172
 
KNKX - Miramar Nas/San, California, USA
Distance from station: WNW 7mi, 11km
Updated: 08/14/2018 2:55pm
Few Clouds
Few Clouds
 Wind from WNW
Wind: WNW 10 mph , 17 km/h
Temperature: 82°F , 28°C
Heat Index: 83°F , 28°C
Dew Point: 63°F , 17°C
Humidity: 51%
Barometer: 29.88 inHg , 1011.9 hPa
Clouds: Few Clouds
Visibility: 10 miles , 16 km
Cloud details: Few Clouds 5000 ft
2018/08/14 21:55 KNKX 142155Z 30009KT 250V320 10SM FEW050 28/17 A2988 RMK AO2 SLP111 T02780172
KSAN - San Diego, California, USA
Distance from station: WSW 11mi, 17km
Updated: 08/14/2018 3:51pm
Mostly cloudy
Mostly cloudy
 Wind from WNW
Wind: WNW 12 mph , 19 km/h
Temperature: 79°F , 26°C
Dew Point: 64°F , 18°C
Humidity: 61%
Barometer: 29.88 inHg , 1011.9 hPa
Clouds: Mostly cloudy
Visibility: 10 miles , 16 km
Cloud details: Partly cloudy 2000 ft
Mostly cloudy 6000 ft
2018/08/14 22:51 KSAN 142251Z 30010KT 10SM SCT020 BKN060 26/18 A2988 RMK AO2 SLP117 T02610183
 
KNZY - North Island Nas, California, USA
Distance from station: SW 13mi, 22km
Updated: 08/14/2018 3:52pm
Mostly cloudy
Mostly cloudy
 Wind from WNW
Wind: WNW 13 mph , 20 km/h
Temperature: 77°F , 25°C
Dew Point: 64°F , 18°C
Humidity: 65%
Barometer: 29.85 inHg , 1010.8 hPa
Clouds: Mostly cloudy
Visibility: 10 miles , 16 km
Cloud details: Mostly cloudy 1600 ft
Mostly cloudy 6000 ft
2018/08/14 22:52 KNZY 142252Z 30011KT 10SM BKN016 BKN060 25/18 A2985 RMK AO2 SLP109 T02500183
KRNM - Ramona, California, USA
Distance from station: NNE 16mi, 26km
Updated: 08/14/2018 3:53pm
Clear
Clear
 Wind from W
Wind: W 13 mph , 20 km/h
Temperature: 82°F , 28°C
Heat Index: 83°F , 28°C
Dew Point: 63°F , 17°C
Humidity: 51%
Barometer: 29.88 inHg , 1011.9 hPa
Clouds: Clear
Visibility: 10 miles , 16 km
2018/08/14 22:53 KRNM 142253Z 27011KT 10SM CLR 28/17 A2988 RMK AO2 SLP104 T02780172
 
KSDM - San Diego/Brown, California, USA
Distance from station: S 16mi, 26km
Updated: 08/14/2018 3:53pm
Clear
Clear
 Wind from W
Wind: W 9 mph , 15 km/h
Temperature: 79°F , 26°C
Dew Point: 64°F , 18°C
Humidity: 61%
Barometer: 29.87 inHg , 1011.5 hPa
Clouds: Clear
Visibility: 10 miles , 16 km
2018/08/14 22:53 KSDM 142253Z 28008KT 260V320 10SM CLR 26/18 A2987 RMK AO2 SLP109 T02610183
KNRS - Imperial Beach, California, USA
Distance from station: SSW 18mi, 29km
Updated: 08/14/2018 3:56pm
Mostly cloudy
Mostly cloudy
 Wind from WNW
Wind: WNW 12 mph , 19 km/h
Temperature: 75°F , 24°C
Dew Point: 64°F , 18°C
Humidity: 69%
Barometer: 29.87 inHg , 1011.5 hPa
Clouds: Mostly cloudy
Visibility: 10 miles , 16 km
Cloud details: Mostly cloudy 1600 ft
Mostly cloudy 6000 ft
2018/08/14 22:56 KNRS 142256Z 29010KT 10SM BKN016 BKN060 24/18 A2987 RMK AO2 SLP113 T02440183
 
MMTJ - Tijuana Intl Arp, Mexico
Distance from station: S 20mi, 32km
Updated: 08/14/2018 3:52pm
Few Clouds
Few Clouds
 Wind from WNW
Wind: WNW 5 mph , 7 km/h
Temperature: 77°F , 25°C
Dew Point: 64°F , 18°C
Humidity: 65%
Barometer: 29.89 inHg , 1012.2 hPa
Clouds: Few Clouds
Visibility: 9 miles , 14 km
Cloud details: Few Clouds 2000 ft
2018/08/14 22:52 MMTJ 142252Z 29004KT 9SM FEW020 25/18 A2989 RMK 8/500 DSNT TCU AND CI E
KCRQ - Carlsbad, California, USA
Distance from station: NW 26mi, 43km
Updated: 08/14/2018 3:53pm
Mostly cloudy
Mostly cloudy
 Wind from varies
Wind: varies 6 mph , 9 km/h
Temperature: 73°F , 23°C
Dew Point: 64°F , 18°C
Humidity: 74%
Barometer: 29.86 inHg , 1011.2 hPa
Clouds: Mostly cloudy
Visibility: 10 miles , 16 km
Cloud details: Mostly cloudy 1500 ft
2018/08/14 22:53 KCRQ 142253Z VRB05KT 10SM BKN015 23/18 A2986 RMK AO2 SLP109 T02330183
 
KOKB - Oceanside, California, USA
Distance from station: NW 33mi, 54km
Updated: 08/14/2018 3:52pm
Few Clouds
Few Clouds
 Wind from WSW
Wind: WSW 14 mph , 22 km/h, Gust: 21 mph , 33 km/h
Temperature: 77°F , 25°C
Dew Point: 64°F , 18°C
Humidity: 65%
Barometer: 29.85 inHg , 1010.8 hPa
Clouds: Few Clouds
Visibility: 10 miles , 16 km
Cloud details: Few Clouds 1600 ft
2018/08/14 22:52 KOKB 142252Z AUTO 25012G18KT 10SM FEW016 25/18 A2985 RMK AO2 SLP107 T02500178
KCZZ - Campo, California, USA
Distance from station: ESE 35mi, 56km
Updated: 08/14/2018 3:52pm

 Wind from SW
Wind: SW 18 mph , 30 km/h
Temperature: 86°F , 30°C
Heat Index: 86°F , 30°C
Dew Point: 61°F , 16°C
Humidity: 43%
Barometer: 29.87 inHg , 1011.5 hPa
2018/08/14 22:52 KCZZ 142252Z AUTO 22016KT 30/16 A2987 RMK AO1 SLP079 T03000156
 
KNFG - Camp Pendleton, California, USA
Distance from station: NNW 37mi, 59km
Updated: 08/14/2018 3:55pm
Few Clouds
Few Clouds
 Wind from SW
Wind: SW 10 mph , 17 km/h
Temperature: 77°F , 25°C
Dew Point: 64°F , 18°C
Humidity: 65%
Barometer: 29.85 inHg , 1010.8 hPa
Clouds: Few Clouds
Visibility: 7 miles , 11 km
Cloud details: Few Clouds 2000 ft
2018/08/14 22:55 KNFG 142255Z 23009KT 7SM FEW020 25/18 A2985 RMK AO2 SLP106 T02500183
KRIV - Riverside/March, California, USA
Distance from station: N 74mi, 119km
Updated: 08/14/2018 2:58pm
Clear
Clear
 Wind from WNW
Wind: WNW 9 mph , 15 km/h
Temperature: 91°F , 33°C
Dew Point: 50°F , 10°C
Humidity: 24%
Barometer: 29.87 inHg , 1011.5 hPa
Clouds: Clear
Visibility: 10 miles , 16 km
2018/08/14 21:58 KRIV 142158Z AUTO 30008KT 10SM CLR 33/10 A2987 RMK AO2 SLP100 T03270101
 
KTRM - Thermal/Palm Spg, California, USA
Distance from station: NE 75mi, 121km
Updated: 08/14/2018 3:52pm
Clear
Clear
 Wind from SE
Wind: SE 7 mph , 11 km/h
Temperature: 108°F , 42°C
Dew Point: 59°F , 15°C
Humidity: 20%
Barometer: 29.65 inHg , 1004.1 hPa
Clouds: Clear
Visibility: 10 miles , 16 km
2018/08/14 22:52 KTRM 142252Z AUTO 14006KT 10SM CLR 42/15 A2965 RMK AO2 SLP042 T04220150
KPSP - Palm Springs, California, USA
Distance from station: NNE 76mi, 122km
Updated: 08/14/2018 3:53pm
Clear
Clear
 Wind from ENE
Wind: ENE 8 mph , 13 km/h
Temperature: 108°F , 42°C
Dew Point: 55°F , 13°C
Humidity: 18%
Barometer: 29.72 inHg , 1006.4 hPa
Clouds: Clear
Visibility: 10 miles , 16 km
2018/08/14 22:53 KPSP 142253Z 06007KT 010V090 10SM CLR 42/13 A2972 RMK AO2 SLP058 T04170128
 
KSNA - Costa Mesa, California, USA
Distance from station: NW 76mi, 123km
Updated: 08/14/2018 3:53pm
Partly cloudy
Partly cloudy
 Wind from SW
Wind: SW 9 mph , 15 km/h
Temperature: 77°F , 25°C
Dew Point: 63°F , 17°C
Humidity: 61%
Barometer: 29.85 inHg , 1010.8 hPa
Clouds: Partly cloudy
Visibility: 10 miles , 16 km
Cloud details: Few Clouds 1700 ft
Few Clouds 3200 ft
Partly cloudy 18000 ft
2018/08/14 22:53 KSNA 142253Z 23008KT 10SM FEW017 FEW032 SCT180 25/17 A2985 RMK AO2 SLP106 T02500172
KNJK - El Centro Naf, California, USA
Distance from station: E 79mi, 127km
Updated: 08/14/2018 3:56pm
Few Clouds
Few Clouds
 Wind from NE
Wind: NE 5 mph , 7 km/h
Temperature: 106°F , 41°C
Dew Point: 63°F , 17°C
Humidity: 25%
Barometer: 29.66 inHg , 1004.4 hPa
Clouds: Few Clouds
Visibility: 10 miles , 16 km
Cloud details: Few Clouds 8000 ft
Few Clouds 25000 ft
2018/08/14 22:56 KNJK 142256Z 05004KT 10SM FEW080 FEW250 41/17 A2966 RMK AO2 SLP060 CB DSNT S-SW T04110172 $
 
KAJO - Corona Muni, California, USA
Distance from station: NNW 82mi, 132km
Updated: 08/14/2018 3:56pm
Clear
Clear
 Wind from WNW
Wind: WNW 15 mph , 24 km/h, Gust: 22 mph , 35 km/h
Temperature: 88°F , 31°C
Dew Point: 57°F , 14°C
Humidity: 35%
Barometer: 29.83 inHg , 1010.2 hPa
Clouds: Clear
Visibility: 10 miles , 16 km
2018/08/14 22:56 KAJO 142256Z AUTO 30013G19KT 10SM CLR 31/14 A2983 RMK AO2 SLP105 T03060139 $